• Join FlightAware (Why Join?)
  • Login
  • US Flag 
08:05AM EST


 

Airport Tracker/Info


-or-


 

Live Flight TrackerFlight Track Log ✈ N719JB ✈ 31-Jul-2013 ✈ KPVD - KPWK

Flight Track Log - Related Links

Times and Time Zones

All times are in EDT time to prevent confusion due to time zone crossing. See the N719JB flight status page for this flight to view local times or setup timezone preferences in your user account.

Time Position Orientation Groundspeed Altitude Reporting Facility
EDT Latitude Longitude Course Direction KTS MPH feet Rate Location/Type
04:31PM 41.7103 -71.4389 260° West 173 199 900  Level Boston Center
04:32PM 41.6947 -71.5617 260° West 237 273 7,100 3,360 Climbing Boston Center
04:33PM 41.7536 -71.6497 312° West 237 273 10,000 2,820 Climbing Boston Center
04:34PM 41.8311 -71.7214 325° Northwest 302 348 12,800 3,420 Climbing Boston Center
04:36PM 41.9194 -71.8094 323° Northwest 360 414 17,000 3,000 Climbing Boston Center
04:37PM 41.9783 -71.9236 305° West 367 422 18,900 1,740 Climbing Boston Center
04:38PM 42.0183 -72.0489 293° West 385 443 20,500 2,280 Climbing Boston Center
04:38PM 42.0606 -72.1911 292° West 398 458 23,500 2,760 Climbing Boston Center
04:39PM 42.1022 -72.3281 292° West 398 458 26,000 2,460 Climbing Boston Center
04:41PM 42.1461 -72.4681 293° West 398 458 28,500 2,460 Climbing Boston Center
04:42PM 42.1856 -72.6111 290° West 403 464 31,000 2,580 Climbing Boston Center
04:42PM 42.2019 -72.7258 281° West 403 464 33,700 3,360 Climbing Boston Center
04:44PM 42.2225 -72.8858 280° West 388 447 37,800 2,880 Climbing Boston Center
04:45PM 42.2406 -73.0150 281° West 368 423 39,600 1,080 Climbing Boston Center
04:45PM 42.2647 -73.1556 283° West 368 423 40,000 180 Climbing Boston Center
04:46PM 42.2847 -73.2989 281° West 379 436 40,000  Level Boston Center
04:47PM 42.3067 -73.4003 286° West 377 434 40,000  Level Boston Center
04:48PM 42.3303 -73.5719 281° West 377 434 40,000 540 Level Boston Center
04:50PM 42.3492 -73.7408 279° West 396 456 41,100 960 Climbing Boston Center
04:51PM 42.3703 -73.8817 282° West 396 456 42,000 900 Climbing Boston Center
04:51PM 42.3914 -74.0283 281° West 396 456 42,900 480 Climbing Boston Center
04:52PM 42.4122 -74.1781 281° West 396 456 43,000  Climbing Boston Center
04:54PM 42.4306 -74.3219 280° West 396 456 43,000  Level Boston Center
04:54PM 42.4472 -74.4464 280° West 386 444 43,000  Level Boston Center
04:55PM 42.4653 -74.5961 279° West 386 444 43,000  Level Boston Center
04:56PM 42.4856 -74.7431 281° West 392 451 43,000  Level Boston Center
04:58PM 42.5053 -74.8903 280° West 397 457 43,000  Level Boston Center
04:59PM 42.5228 -75.0347 279° West 397 457 43,000  Level Boston Center
04:59PM 42.5425 -75.1822 280° West 397 457 43,000  Level Boston Center
05:00PM 42.5597 -75.3267 279° West 392 451 43,000  Level Boston Center
05:01PM 42.5786 -75.4742 280° West 397 457 43,000  Level Boston Center
05:03PM 42.5975 -75.6219 280° West 392 451 43,000  Level Boston Center
05:04PM 42.6144 -75.7667 279° West 392 451 43,000  Level Boston Center
05:04PM 42.6328 -75.9144 280° West 392 451 43,000  Level Boston Center
05:06PM 42.6650 -76.2089 279° West 394 453 43,000  Level Cleveland Center
05:07PM 42.6850 -76.3572 280° West 389 448 43,000  Level Cleveland Center
05:08PM 42.7028 -76.5003 280° West 389 448 43,000  Level Cleveland Center
05:09PM 42.7206 -76.6517 279° West 389 448 43,000  Level Cleveland Center
05:10PM 42.7353 -76.7836 279° West 395 455 43,000  Level Cleveland Center
05:11PM 42.7528 -76.9353 279° West 400 460 43,000  Level Cleveland Center
05:12PM 42.7700 -77.0844 279° West 405 466 43,000  Level Cleveland Center
05:13PM 42.7869 -77.2361 279° West 405 466 43,000  Level Cleveland Center
05:14PM 42.8036 -77.3881 279° West 410 472 43,000  Level Cleveland Center
05:15PM 42.8225 -77.5400 280° West 405 466 43,000  Level Cleveland Center
05:16PM 42.8367 -77.6922 277° West 405 466 43,000  Level Cleveland Center
05:17PM 42.8531 -77.8472 278° West 410 472 43,000  Level Cleveland Center
05:18PM 42.8669 -77.9969 277° West 410 472 43,000  Level Cleveland Center
05:19PM 42.8806 -78.1494 277° West 410 472 43,000  Level Cleveland Center
05:20PM 42.8983 -78.3044 279° West 410 472 43,000  Level Cleveland Center
05:21PM 42.9117 -78.4544 277° West 410 472 43,000  Level Cleveland Center
05:22PM 42.9269 -78.6097 278° West 410 472 43,000  Level Cleveland Center
05:23PM 42.9378 -78.7597 276° West 410 472 43,000  Level Cleveland Center
05:24PM 42.9442 -78.9156 273° West 410 472 43,000  Level Cleveland Center
05:25PM 42.9506 -79.0658 273° West 405 466 43,000  Level Cleveland Center
05:27PM 42.9500 -79.2667 270° West 400 460 43,000  Level Toronto Center
05:28PM 42.9667 -79.4333 278° West 410 472 43,000  Level Toronto Center
05:29PM 42.9667 -79.5667 270° West 400 460 43,000  Level Toronto Center
05:30PM 42.9667 -79.7167 270° West 400 460 43,000  Level Toronto Center
05:31PM 42.9833 -79.8667 279° West 400 460 43,000  Level Toronto Center
05:32PM 42.9833 -80.0167 270° West 390 449 43,000  Level Toronto Center
05:33PM 43.0000 -80.1833 278° West 390 449 43,000  Level Toronto Center
05:34PM 43.0000 -80.3167 270° West 390 449 43,000  Level Toronto Center
05:35PM 43.0000 -80.4500 270° West 390 449 43,000  Level Toronto Center
05:36PM 43.0167 -80.6167 278° West 390 449 43,000  Level Toronto Center
05:37PM 43.0167 -80.7667 270° West 390 449 43,000  Level Toronto Center
05:38PM 43.0167 -80.9167 270° West 390 449 43,000  Level Toronto Center
05:39PM 43.0167 -81.0667 270° West 400 460 43,000  Level Toronto Center
05:40PM 43.0333 -81.2000 280° West 400 460 43,000  Level Toronto Center
05:41PM 43.0500 -81.3667 278° West 400 460 43,000  Level Toronto Center
05:42PM 43.0833 -81.5000 289° West 400 460 43,000  Level Toronto Center
05:43PM 43.1000 -81.6667 278° West 400 460 43,000  Level Toronto Center
05:44PM 43.1333 -81.8000 289° West 400 460 43,000  Level Toronto Center
05:45PM 43.1333 -81.9667 270° West 400 460 43,000  Level Toronto Center
05:46PM 43.1500 -82.1000 280° West 400 460 43,000  Level Toronto Center
05:47PM 43.1833 -82.2667 285° West 400 460 43,000  Level Toronto Center
05:48PM 43.2000 -82.4000 280° West 400 460 43,000 -300 Level Toronto Center
05:49PM 43.2167 -82.5667 278° West 400 460 42,400 -1,320 Descending Toronto Center
05:50PM 43.1667 -82.7000 243° Southwest 390 449 40,400 -2,040 Descending Toronto Center
05:51PM 43.1500 -82.8500 261° West 390 449 38,400 -2,100 Descending Toronto Center
05:52PM 43.1244 -83.0153 258° West 389 448 35,800 -2,400 Descending Cleveland Center
05:53PM 43.0983 -83.1564 256° West 389 448 33,100 -2,580 Descending Cleveland Center
05:54PM 43.0681 -83.2972 254° West 389 448 30,700 -1,560 Descending Cleveland Center
05:55PM 43.0394 -83.4467 255° West 394 453 30,000 -360 Descending Cleveland Center
05:56PM 43.0086 -83.5986 255° West 406 467 30,000  Level Cleveland Center
05:57PM 42.9772 -83.7503 254° West 411 473 30,000  Level Cleveland Center
05:58PM 42.9461 -83.8992 254° West 416 479 30,000  Level Cleveland Center
05:59PM 42.9169 -84.0364 254° West 391 450 30,000  Level Cleveland Center
06:00PM 42.8964 -84.1397 255° West 411 473 30,000  Level Chicago Center
06:01PM 42.8647 -84.2892 254° West 410 472 30,000  Level Chicago Center
06:02PM 42.8331 -84.4375 254° West 409 471 30,000  Level Chicago Center
06:03PM 42.8011 -84.5858 254° West 408 470 30,000  Level Chicago Center
06:04PM 42.7700 -84.7333 254° West 407 468 30,000  Level Chicago Center
06:05PM 42.7381 -84.8797 253° West 405 466 30,000  Level Chicago Center
06:06PM 42.7011 -85.0542 254° West 402 463 30,000  Level Chicago Center
06:07PM 42.6683 -85.1986 253° West 400 460 30,000  Level Chicago Center
06:08PM 42.6372 -85.3433 254° West 400 460 30,000 -600 Level Chicago Center
06:09PM 42.6061 -85.4831 253° West 390 449 28,800 -1,560 Descending Chicago Center
06:10PM 42.5736 -85.6269 253° West 394 453 26,800 -2,040 Descending Chicago Center
06:11PM 42.5394 -85.7753 253° West 407 468 24,600 -2,100 Descending Chicago Center
06:12PM 42.5061 -85.9231 253° West 408 470 22,500 -2,220 Descending Chicago Center
06:13PM 42.4675 -86.0931 253° West 394 453 20,100 -1,260 Descending Chicago Center
06:14PM 42.4578 -86.2433 265° West 404 465 20,000 -600 Descending Chicago Center
06:15PM 42.4514 -86.3956 267° West 403 464 18,900 -1,860 Descending Chicago Center
06:16PM 42.4417 -86.5433 265° West 396 456 16,200 -2,640 Descending Chicago Center
06:17PM 42.4328 -86.6919 265° West 395 455 13,500 -2,520 Descending Chicago Center
06:18PM 42.4261 -86.8292 266° West 368 423 11,100 -2,160 Descending Chicago Center
06:19PM 42.4181 -86.9628 265° West 297 342 9,100 -1,860 Descending Chicago Center
06:20PM 42.4108 -87.0650 265° West 276 318 7,300 -1,740 Descending Chicago Center
06:21PM 42.4061 -87.1633 266° West 266 306 5,500 -1,620 Descending Chicago Center
06:23PM 42.4000 -87.3167 267° West 253 291 3,100 -1,020 Descending Chicago TRACON
06:24PM 42.4000 -87.4000 270° West 256 295 3,000 -60 Descending Chicago TRACON
06:25PM 42.3833 -87.5167 259° West 252 290 3,000  Level Chicago TRACON
06:26PM 42.3833 -87.6000 270° West 246 283 3,000  Level Chicago TRACON
06:27PM 42.3667 -87.6667 251° West 202 232 3,100  Climbing Chicago TRACON
06:28PM 42.3500 -87.7333 251° West 203 234 3,000 -300 Descending Chicago TRACON
06:29PM 42.3333 -87.8167 255° West 201 231 2,600 -300 Descending Chicago TRACON
06:30PM 42.3167 -87.8833 251° West 201 231 2,500 -60 Descending Chicago TRACON
06:31PM 42.3000 -87.9667 255° West 210 242 2,500  Level Chicago TRACON
06:32PM 42.2500 -87.9667 180° South 220 253 2,500 -240 Level Chicago TRACON
06:33PM 42.1833 -87.9333 160° South 186 214 2,000 -300 Descending Chicago TRACON
06:34PM 42.1333 -87.9333 180° South 186 214 1,900 -300 Descending Chicago TRACON
06:35PM 42.0833 -87.9167 166° South 156 180 1,400 -540 Descending Chicago TRACON
06:37PM 42.1143 -87.9015 162° South  Level Estimated